सभी
Clermont Airport (Clermont, Queensland) CMQ मौसम
|
Clermont, Queensland (CMQ / YCMT)
स्वच्छ आकाश
शांत हवाएं |
|
15 °C |
CMQ Terminal Area Forecast
| Date | Time (AEST) | Flight Rules | Wind Dir. | Speed | Type | Height AGL (ft) | Visibility | Remarks | ||||||
|---|---|---|---|---|---|---|---|---|---|---|---|---|---|---|
Recent CMQ METAR history
| Date | Time (AEST) | Flight Rules | Wind Dir. | Speed | Type | Height AGL (ft) | Visibility | Temp (°C) | Temp (°F) | Dew Point (°C) | Dew Point (°F) | Rel. Humid. | Pressure | Density Altitude | Remarks |
|---|---|---|---|---|---|---|---|---|---|---|---|---|---|---|---|
| 03-मई | 00:00 | VFR | Calm | 10000 meters | 15° | 59° | 13° | 55° | 88% | 1018 mb | 766 ft | ||||
| 02-मई | 23:00 | VFR | Calm | Few |
6,200 |
10000 meters | 16° | 60° | 13° | 55° | 82% | 1018 mb | 886 ft | ||
| 02-मई | 22:00 | VFR | Calm | 10000 meters | 16° | 60° | 13° | 55° | 82% | 1018 mb | 886 ft | ||||
| 02-मई | 21:00 | VFR | Calm | 10000 meters | 16° | 60° | 13° | 55° | 82% | 1018 mb | 886 ft | ||||
| 02-मई | 20:00 | VFR | Calm | 10000 meters | 18° | 64° | 13° | 55° | 73% | 1017 mb | 1,156 ft | ||||
| 02-मई | 19:00 | VFR | Calm | 10000 meters | 19° | 66° | 13° | 55° | 68% | 1017 mb | 1,276 ft | ||||
| 02-मई | 18:00 | VFR | 140° | 2 kt | 10000 meters | 25° | 77° | 12° | 53° | 44% | 1016 mb | 2,026 ft | |||
| 02-मई | 17:00 | VFR | 180° | 3 kt | 10000 meters | 28° | 82° | 11° | 51° | 35% | 1016 mb | 2,386 ft | |||
| 02-मई | 16:00 | VFR | 140° | 6 kt | 10000 meters | 28° | 82° | 11° | 51° | 35% | 1015 mb | 2,415 ft | |||
| 02-मई | 15:00 | VFR | 170° | 6 kt | 10000 meters | 29° | 84° | 12° | 53° | 35% | 1015 mb | 2,535 ft | |||
| 02-मई | 14:00 | VFR | 110° | 6 kt | 10000 meters | 28° | 82° | 12° | 53° | 37% | 1016 mb | 2,386 ft | |||
| 02-मई | 13:00 | VFR | 140° | 6 kt | 10000 meters | 28° | 82° | 12° | 53° | 37% | 1017 mb | 2,356 ft | |||
| 02-मई | 12:00 | VFR | 130° | 7 kt | 10000 meters | 27° | 80° | 13° | 55° | 42% | 1018 mb | 2,206 ft | |||
| 02-मई | 11:00 | VFR | 130° | 7 kt | 10000 meters | 25° | 77° | 14° | 57° | 50% | 1019 mb | 1,937 ft | |||
| 02-मई | 10:00 | VFR | 130° | 5 kt | 10000 meters | 24° | 75° | 16° | 60° | 61% | 1020 mb | 1,787 ft | |||
| 02-मई | 09:00 | VFR | 150° | 6 kt | 10000 meters | 20° | 68° | 16° | 60° | 78% | 1020 mb | 1,307 ft | |||
| 02-मई | 08:00 | VFR | 140° | 4 kt | 10000 meters | 18° | 64° | 16° | 60° | 88% | 1020 mb | 1,067 ft | |||
| 02-मई | 07:00 | VFR | 190° | 2 kt | 10000 meters | 14° | 57° | 13° | 55° | 94% | 1019 mb | 617 ft | |||
| 02-मई | 06:00 | VFR | 200° | 2 kt | 10000 meters | 13° | 55° | 12° | 53° | 94% | 1019 mb | 497 ft | |||
| 02-मई | 05:00 | VFR | 190° | 3 kt | 10000 meters | 13° | 55° | 12° | 53° | 94% | 1018 mb | 526 ft | |||
| 02-मई | 04:00 | VFR | 190° | 2 kt | 10000 meters | 14° | 57° | 13° | 55° | 94% | 1018 mb | 646 ft | |||
| 02-मई | 03:00 | VFR | Calm | 10000 meters | 14° | 57° | 13° | 55° | 94% | 1019 mb | 617 ft | ||||
| 02-मई | 02:00 | VFR | 230° | 1 kt | 10000 meters | 14° | 57° | 14° | 57° | 100% | 1019 mb | 617 ft | |||
| 02-मई | 01:00 | VFR | 230° | 2 kt | 10000 meters | 15° | 59° | 14° | 57° | 94% | 1019 mb | 737 ft |
लॉगिन
| Your browser is unsupported. अपना ब्राऊजर अपग्रेड करें |
